Ana Sayfa
METAR-TAF:

METAR-TAF

Havaalanları :

Basra Havalimanı

Basra, Irak

Enlem: 30-32-56N, Boylam: 47-39-45E, yükseklik: 1 m

Güncel hava durumu gözlemi

Rapor saat 23:00 UTC de 37 dakika önce yapıldı.
Rüzgar batıdan 8 kt
Sıcaklık 8°C
Nem 76%
Basınç 1024 hPa
Görüş mesafesi 10 km veya daha fazla
1500 m altında bulut yok ve kümülonimbus yok

METAR: ORMM 262300Z 26008KT CAVOK 08/04 Q1024 NOSIG

Saat: 02:37 (23:37 UTC)

Tahmin

Rapor saat 16:00 UTC de 7 saat ve 37 dakika önce yapıldı.
Ayın 26'si saat 18 UTC'den ayın 27'si saat 18 UTC'ye kadar geçerli Tahmin
Rüzgar batıdan 12 kt
Görüş mesafesi 10 km veya daha fazla
1500 m altında bulut yok ve kümülonimbus yok

TAF: ORMM 261600Z 2618/2718 28012KT CAVOK

4.000'den fazla havaalanı için hava durumu gözlemleri ve tahminleri (METAR ve TAF raporları).

Kullanılabilir istasyonlar harita üzerinde sarı ve kırmızı noktalarla gösterilir.

İstasyonun adını görmek için fareyi noktanın üzerinde gezdirin.

Sonrasında hava gözlem ve tahminlerini görmek için tıklayın.

Haritayı değiştirmek için: yaklaştırmak için siyah artı işaretli yeşil düğmeye ve uzaklaştırmak için de eksi işaretli düğmeye hızla tıklayın; bitişik haritalar için yeşil okları kullanın.


METAR-TAF: